createdAt,value
2018-04-14T00:00:15.301Z,0
2018-04-14T00:01:15.556Z,0
2018-04-14T00:02:15.531Z,0
2018-04-14T00:03:15.513Z,0
2018-04-14T00:04:15.502Z,0
2018-04-14T00:05:15.490Z,0
2018-04-14T00:06:15.467Z,0
2018-04-14T00:07:15.461Z,0
2018-04-14T00:08:15.443Z,0
2018-04-14T00:09:15.439Z,0
2018-04-14T00:10:15.426Z,0
2018-04-14T00:11:15.189Z,0
2018-04-14T00:12:14.855Z,0
2018-04-14T00:13:15.380Z,0
2018-04-14T00:14:15.093Z,0
2018-04-14T00:15:15.279Z,0
2018-04-14T00:16:15.067Z,0
2018-04-14T00:17:15.577Z,0
2018-04-14T00:18:15.031Z,0
2018-04-14T00:19:15.293Z,0
2018-04-14T00:20:15.004Z,0
2018-04-14T00:21:15.252Z,0
2018-04-14T00:22:14.983Z,0
2018-04-14T00:23:15.230Z,0
2018-04-14T00:24:15.214Z,0
2018-04-14T00:25:15.194Z,0
2018-04-14T00:26:15.178Z,0
2018-04-14T00:27:14.909Z,0
2018-04-14T00:28:14.630Z,0
2018-04-14T00:29:15.345Z,0
2018-04-14T00:30:15.121Z,0
2018-04-14T00:31:15.379Z,0
2018-04-14T00:32:15.108Z,0
2018-04-14T00:33:15.090Z,0
2018-04-14T00:34:15.329Z,0
2018-04-14T00:35:14.785Z,0
2018-04-14T00:36:15.035Z,0
2018-04-14T00:37:15.024Z,0
2018-04-14T00:38:15.006Z,0
2018-04-14T00:39:14.988Z,0
2018-04-14T00:40:14.979Z,0
2018-04-14T00:41:14.699Z,0
2018-04-14T00:42:14.416Z,0
2018-04-14T00:43:14.940Z,0
2018-04-14T00:44:14.920Z,0
2018-04-14T00:45:14.909Z,0
2018-04-14T00:46:14.625Z,0
2018-04-14T00:47:14.880Z,0
2018-04-14T00:48:14.864Z,0
2018-04-14T00:49:14.846Z,0
2018-04-14T00:50:14.831Z,0
2018-04-14T00:51:14.809Z,0
2018-04-14T00:52:14.807Z,0
2018-04-14T00:53:14.798Z,0
2018-04-14T00:54:14.504Z,0
2018-04-14T00:55:14.502Z,0
2018-04-14T00:56:14.738Z,0
2018-04-14T00:57:14.727Z,0
2018-04-14T00:58:14.442Z,0
2018-04-14T00:59:14.690Z,0
2018-04-14T01:00:14.146Z,0
2018-04-14T01:01:14.454Z,0
2018-04-14T01:02:14.392Z,0
2018-04-14T01:03:14.367Z,0
2018-04-14T01:04:14.359Z,0
2018-04-14T01:05:14.338Z,0
2018-04-14T01:06:14.588Z,0
2018-04-14T01:07:14.310Z,0
2018-04-14T01:08:14.574Z,0
2018-04-14T01:09:14.015Z,0
2018-04-14T01:10:14.814Z,0
2018-04-14T01:11:14.518Z,0
2018-04-14T01:12:14.239Z,0
2018-04-14T01:13:14.482Z,0
2018-04-14T01:14:14.740Z,0
2018-04-14T01:15:14.458Z,0
2018-04-14T01:16:14.444Z,0
2018-04-14T01:17:14.441Z,0
2018-04-14T01:18:14.408Z,0
2018-04-14T01:19:14.124Z,0
2018-04-14T01:20:14.381Z,0
2018-04-14T01:21:14.367Z,0
2018-04-14T01:22:13.821Z,0
2018-04-14T01:23:14.069Z,0
2018-04-14T01:24:14.064Z,0
2018-04-14T01:25:14.048Z,0
2018-04-14T01:26:14.024Z,0
2018-04-14T01:27:14.541Z,0
2018-04-14T01:28:14.281Z,0
2018-04-14T01:29:14.515Z,0
2018-04-14T01:30:13.974Z,0
2018-04-14T01:31:13.964Z,0
2018-04-14T01:32:13.950Z,0
2018-04-14T01:33:13.928Z,0
2018-04-14T01:34:14.169Z,0
2018-04-14T01:35:14.159Z,0
2018-04-14T01:36:14.143Z,0
2018-04-14T01:37:14.136Z,0
2018-04-14T01:38:14.105Z,0
2018-04-14T01:39:14.098Z,0
2018-04-14T01:40:14.351Z,0
2018-04-14T01:41:13.808Z,0
2018-04-14T01:42:14.314Z,0
2018-04-14T01:43:14.046Z,0
2018-04-14T01:44:13.761Z,0
2018-04-14T01:45:13.751Z,0
2018-04-14T01:46:14.002Z,0
2018-04-14T01:47:13.985Z,0
2018-04-14T01:48:13.970Z,0
2018-04-14T01:49:13.954Z,0
2018-04-14T01:50:13.677Z,0
2018-04-14T01:51:13.660Z,0
2018-04-14T01:52:13.914Z,0
2018-04-14T01:53:13.953Z,0
2018-04-14T01:54:13.611Z,0
2018-04-14T01:55:13.911Z,0
2018-04-14T01:56:13.582Z,0
2018-04-14T01:57:13.569Z,0
2018-04-14T01:58:13.549Z,0
2018-04-14T01:59:13.559Z,0
2018-04-14T02:00:13.263Z,0
2018-04-14T02:01:13.776Z,0
2018-04-14T02:02:14.033Z,0
2018-04-14T02:03:14.100Z,0
2018-04-14T02:04:14.001Z,0
2018-04-14T02:05:13.995Z,0
2018-04-14T02:06:13.431Z,0
2018-04-14T02:07:13.162Z,0
2018-04-14T02:08:13.725Z,0
2018-04-14T02:09:13.649Z,0
2018-04-14T02:10:13.652Z,0
2018-04-14T02:11:13.905Z,0
2018-04-14T02:12:13.887Z,0
2018-04-14T02:13:13.071Z,0
2018-04-14T02:14:13.052Z,0
2018-04-14T02:15:13.830Z,0
2018-04-14T02:16:13.551Z,0
2018-04-14T02:17:13.272Z,0
2018-04-14T02:18:13.782Z,0
2018-04-14T02:19:13.236Z,0
2018-04-14T02:20:13.230Z,0
2018-04-14T02:21:13.475Z,0
2018-04-14T02:22:13.732Z,0
2018-04-14T02:23:13.721Z,0
2018-04-14T02:24:13.166Z,0
2018-04-14T02:25:13.152Z,0
2018-04-14T02:26:13.405Z,0
2018-04-14T02:27:13.121Z,0
2018-04-14T02:28:13.373Z,0
2018-04-14T02:29:13.558Z,0
2018-04-14T02:30:13.083Z,0
2018-04-14T02:31:13.598Z,0
2018-04-14T02:32:13.585Z,0
2018-04-14T02:33:13.028Z,0
2018-04-14T02:34:13.293Z,0
2018-04-14T02:35:13.269Z,0
2018-04-14T02:36:13.256Z,0
2018-04-14T02:37:12.709Z,0
2018-04-14T02:38:12.686Z,0
2018-04-14T02:39:12.962Z,0
2018-04-14T02:40:12.930Z,0
2018-04-14T02:41:13.186Z,0
2018-04-14T02:42:13.178Z,0
2018-04-14T02:43:13.146Z,0
2018-04-14T02:44:13.135Z,0
2018-04-14T02:45:13.125Z,0
2018-04-14T02:46:13.111Z,0
2018-04-14T02:47:12.820Z,0
2018-04-14T02:48:13.067Z,0
2018-04-14T02:49:13.372Z,0
2018-04-14T02:50:12.781Z,0
2018-04-14T02:51:12.765Z,0
2018-04-14T02:52:12.831Z,0
2018-04-14T02:53:13.284Z,0
2018-04-14T02:54:13.246Z,0
2018-04-14T02:55:12.974Z,0
2018-04-14T02:56:12.948Z,0
2018-04-14T02:57:12.945Z,0
2018-04-14T02:58:12.673Z,0
2018-04-14T02:59:12.916Z,0
2018-04-14T03:00:12.901Z,0
2018-04-14T03:01:12.878Z,0
2018-04-14T03:02:12.874Z,0
2018-04-14T03:03:12.317Z,0
2018-04-14T03:04:12.588Z,0
2018-04-14T03:05:13.092Z,0
2018-04-14T03:06:12.810Z,0
2018-04-14T03:07:12.795Z,0
2018-04-14T03:08:12.518Z,0
2018-04-14T03:09:12.835Z,0
2018-04-14T03:10:12.515Z,0
2018-04-14T03:11:12.734Z,0
2018-04-14T03:12:12.721Z,0
2018-04-14T03:13:12.443Z,0
2018-04-14T03:14:12.417Z,0
2018-04-14T03:15:12.400Z,0
2018-04-14T03:16:12.651Z,0
2018-04-14T03:17:12.641Z,0
2018-04-14T03:18:12.629Z,0
2018-04-14T03:19:12.617Z,0
2018-04-14T03:20:12.592Z,0
2018-04-14T03:21:12.848Z,0
2018-04-14T03:22:12.560Z,0
2018-04-14T03:23:12.557Z,0
2018-04-14T03:24:12.538Z,0
2018-04-14T03:25:12.255Z,0
2018-04-14T03:26:12.513Z,0
2018-04-14T03:27:12.479Z,0
2018-04-14T03:28:12.206Z,0
2018-04-14T03:29:11.923Z,0
2018-04-14T03:30:12.187Z,0
2018-04-14T03:31:12.218Z,0
2018-04-14T03:32:12.145Z,0
2018-04-14T03:33:12.394Z,0
2018-04-14T03:34:12.641Z,0
2018-04-14T03:35:12.642Z,0
2018-04-14T03:36:12.087Z,0
2018-04-14T03:37:12.061Z,0
2018-04-14T03:38:12.052Z,0
2018-04-14T03:39:12.301Z,0
2018-04-14T03:40:12.026Z,0
2018-04-14T03:41:12.005Z,0
2018-04-14T03:42:11.997Z,0
2018-04-14T03:43:12.505Z,0
2018-04-14T03:44:12.234Z,0
2018-04-14T03:45:12.215Z,0
2018-04-14T03:46:12.189Z,0
2018-04-14T03:47:12.178Z,0
2018-04-14T03:48:12.165Z,0
2018-04-14T03:49:12.160Z,0
2018-04-14T03:50:11.876Z,0
2018-04-14T03:51:12.117Z,0
2018-04-14T03:52:12.100Z,0
2018-04-14T03:53:12.093Z,0
2018-04-14T03:54:12.080Z,0
2018-04-14T03:55:12.057Z,0
2018-04-14T03:56:12.309Z,0
2018-04-14T03:57:11.765Z,0
2018-04-14T03:58:12.016Z,0
2018-04-14T03:59:12.265Z,0
2018-04-14T04:00:11.716Z,0
2018-04-14T04:01:11.964Z,0
2018-04-14T04:02:11.969Z,0
2018-04-14T04:03:11.934Z,0
2018-04-14T04:04:11.654Z,0
2018-04-14T04:05:11.907Z,0
2018-04-14T04:06:11.900Z,0
2018-04-14T04:07:11.882Z,0
2018-04-14T04:08:11.867Z,0
2018-04-14T04:09:11.851Z,0
2018-04-14T04:10:11.573Z,0
2018-04-14T04:11:12.086Z,0
2018-04-14T04:12:12.062Z,4
2018-04-14T04:13:11.252Z,4
2018-04-14T04:14:11.505Z,0
2018-04-14T04:15:11.753Z,0
2018-04-14T04:16:11.475Z,0
2018-04-14T04:17:11.462Z,4
2018-04-14T04:18:11.437Z,4
2018-04-14T04:19:11.697Z,4
2018-04-14T04:20:11.696Z,8
2018-04-14T04:21:11.409Z,8
2018-04-14T04:22:11.114Z,12
2018-04-14T04:23:11.375Z,12
2018-04-14T04:24:11.351Z,16
2018-04-14T04:25:11.071Z,12
2018-04-14T04:26:11.601Z,16
2018-04-14T04:27:11.836Z,16
2018-04-14T04:28:11.653Z,20
2018-04-14T04:29:11.745Z,20
2018-04-14T04:30:11.267Z,24
2018-04-14T04:31:11.514Z,24
2018-04-14T04:32:11.235Z,20
2018-04-14T04:33:11.491Z,20
2018-04-14T04:34:11.466Z,28
2018-04-14T04:35:11.457Z,40
2018-04-14T04:36:11.435Z,52
2018-04-14T04:37:11.153Z,56
2018-04-14T04:38:11.132Z,68
2018-04-14T04:39:11.118Z,88
2018-04-14T04:40:11.103Z,96
2018-04-14T04:41:11.407Z,88
2018-04-14T04:42:10.808Z,72
2018-04-14T04:43:11.068Z,72
2018-04-14T04:44:11.315Z,72
2018-04-14T04:45:10.764Z,76
2018-04-14T04:46:11.550Z,80
2018-04-14T04:47:11.272Z,88
2018-04-14T04:48:10.984Z,100
2018-04-14T04:49:11.504Z,112
2018-04-14T04:50:11.484Z,108
2018-04-14T04:51:11.469Z,80
2018-04-14T04:52:10.925Z,76
2018-04-14T04:53:11.174Z,80
2018-04-14T04:54:10.633Z,76
2018-04-14T04:55:10.884Z,72
2018-04-14T04:56:11.128Z,60
2018-04-14T04:57:11.378Z,64
2018-04-14T04:58:11.092Z,80
2018-04-14T04:59:11.093Z,84
2018-04-14T05:00:10.810Z,80
2018-04-14T05:01:10.792Z,80
2018-04-14T05:02:11.303Z,76
2018-04-14T05:03:11.297Z,72
2018-04-14T05:04:11.022Z,80
2018-04-14T05:05:10.994Z,92
2018-04-14T05:06:10.711Z,92
2018-04-14T05:07:11.423Z,100
2018-04-14T05:08:10.684Z,104
2018-04-14T05:09:10.923Z,108
2018-04-14T05:10:10.913Z,116
2018-04-14T05:11:10.687Z,136
2018-04-14T05:12:11.153Z,172
2018-04-14T05:13:10.605Z,220
2018-04-14T05:14:10.911Z,248
2018-04-14T05:15:10.578Z,240
2018-04-14T05:16:10.568Z,248
2018-04-14T05:17:10.815Z,304
2018-04-14T05:18:10.796Z,456
2018-04-14T05:19:11.053Z,596
2018-04-14T05:20:11.039Z,584
2018-04-14T05:21:10.749Z,480
2018-04-14T05:22:10.747Z,480
2018-04-14T05:23:10.986Z,496
2018-04-14T05:24:10.791Z,464
2018-04-14T05:25:10.725Z,472
2018-04-14T05:26:10.683Z,512
2018-04-14T05:27:10.392Z,480
2018-04-14T05:28:10.644Z,436
2018-04-14T05:29:10.626Z,448
2018-04-14T05:30:10.617Z,556
2018-04-14T05:31:10.603Z,672
2018-04-14T05:32:10.844Z,708
2018-04-14T05:33:10.570Z,768
2018-04-14T05:34:10.013Z,768
2018-04-14T05:35:10.801Z,676
2018-04-14T05:36:10.529Z,568
2018-04-14T05:37:10.516Z,592
2018-04-14T05:38:10.497Z,816
2018-04-14T05:39:10.491Z,1072
2018-04-14T05:40:10.197Z,1116
2018-04-14T05:41:10.439Z,1068
2018-04-14T05:42:10.158Z,1028
2018-04-14T05:43:10.678Z,956
2018-04-14T05:44:10.658Z,896
2018-04-14T05:45:10.649Z,924
2018-04-14T05:46:10.369Z,1212
2018-04-14T05:47:10.620Z,1408
2018-04-14T05:48:10.086Z,1148
2018-04-14T05:49:10.606Z,728
2018-04-14T05:50:10.570Z,580
2018-04-14T05:51:10.569Z,724
2018-04-14T05:52:10.012Z,988
2018-04-14T05:53:10.257Z,1056
2018-04-14T05:54:10.245Z,864
2018-04-14T05:55:09.969Z,804
2018-04-14T05:56:10.218Z,852
2018-04-14T05:57:10.202Z,892
2018-04-14T05:58:10.185Z,1072
2018-04-14T05:59:09.912Z,1248
2018-04-14T06:00:09.897Z,1600
2018-04-14T06:01:09.882Z,2060
2018-04-14T06:02:10.400Z,2248
2018-04-14T06:03:09.782Z,1956
2018-04-14T06:04:09.833Z,1792
2018-04-14T06:05:09.552Z,1808
2018-04-14T06:06:09.806Z,1608
2018-04-14T06:07:10.311Z,1432
2018-04-14T06:08:10.305Z,1472
2018-04-14T06:09:10.083Z,1480
2018-04-14T06:10:10.275Z,1396
2018-04-14T06:11:10.259Z,1460
2018-04-14T06:12:09.974Z,1696
2018-04-14T06:13:09.733Z,2112
2018-04-14T06:14:09.680Z,2608
2018-04-14T06:15:10.203Z,2648
2018-04-14T06:16:10.179Z,2148
2018-04-14T06:17:09.636Z,1944
2018-04-14T06:18:10.151Z,1748
2018-04-14T06:19:09.862Z,1512
2018-04-14T06:20:10.126Z,1252
2018-04-14T06:21:09.580Z,1528
2018-04-14T06:22:09.685Z,1964
2018-04-14T06:23:10.083Z,2108
2018-04-14T06:24:09.528Z,2100
2018-04-14T06:25:09.511Z,2352
2018-04-14T06:26:09.503Z,2936
2018-04-14T06:27:09.537Z,3100
2018-04-14T06:28:09.469Z,2812
2018-04-14T06:29:09.924Z,3224
2018-04-14T06:30:09.968Z,3688
2018-04-14T06:31:09.425Z,3548
2018-04-14T06:32:09.404Z,3868
2018-04-14T06:33:09.658Z,3652
2018-04-14T06:34:09.377Z,3328
2018-04-14T06:35:09.386Z,3524
2018-04-14T06:36:09.417Z,3764
2018-04-14T06:37:09.343Z,3540
2018-04-14T06:38:09.594Z,3480
2018-04-14T06:39:09.304Z,3552
2018-04-14T06:40:09.566Z,3504
2018-04-14T06:41:09.536Z,3620
2018-04-14T06:42:09.525Z,3604
2018-04-14T06:43:09.252Z,3256
2018-04-14T06:44:09.577Z,3364
2018-04-14T06:45:09.236Z,3680
2018-04-14T06:46:08.969Z,3508
2018-04-14T06:47:09.184Z,3344
2018-04-14T06:48:09.436Z,2892
2018-04-14T06:49:08.896Z,2512
2018-04-14T06:50:09.489Z,2708
2018-04-14T06:51:09.397Z,2352
2018-04-14T06:52:09.125Z,2264
2018-04-14T06:53:09.643Z,2212
2018-04-14T06:54:09.397Z,2304
2018-04-14T06:55:09.076Z,2412
2018-04-14T06:56:09.590Z,2580
2018-04-14T06:57:09.310Z,2644
2018-04-14T06:58:09.293Z,2904
2018-04-14T06:59:09.279Z,3148
2018-04-14T07:00:09.266Z,3336
2018-04-14T07:01:08.984Z,3264
2018-04-14T07:02:09.496Z,2616
2018-04-14T07:03:09.221Z,3404
2018-04-14T07:04:08.673Z,3652
2018-04-14T07:05:09.488Z,3220
2018-04-14T07:06:08.921Z,3296
2018-04-14T07:07:09.428Z,3120
2018-04-14T07:08:08.622Z,3004
2018-04-14T07:09:09.405Z,2868
2018-04-14T07:10:09.418Z,3236
2018-04-14T07:11:08.841Z,3636
2018-04-14T07:12:08.838Z,3492
2018-04-14T07:13:09.078Z,3788
2018-04-14T07:14:08.800Z,4296
2018-04-14T07:15:08.786Z,4432
2018-04-14T07:16:08.765Z,5076
2018-04-14T07:17:08.487Z,5692
2018-04-14T07:18:09.011Z,5860
2018-04-14T07:19:08.991Z,6064
2018-04-14T07:20:08.982Z,6676
2018-04-14T07:21:08.979Z,7412
2018-04-14T07:22:08.949Z,7812
2018-04-14T07:23:08.679Z,9288
2018-04-14T07:24:08.661Z,9964
2018-04-14T07:25:09.175Z,9728
2018-04-14T07:26:08.360Z,9220
2018-04-14T07:27:09.144Z,9484
2018-04-14T07:28:08.598Z,9408
2018-04-14T07:29:08.854Z,8672
2018-04-14T07:30:08.315Z,8956
2018-04-14T07:31:08.830Z,8140
2018-04-14T07:32:08.812Z,8456
2018-04-14T07:33:08.821Z,9808
2018-04-14T07:34:08.250Z,8904
2018-04-14T07:35:08.518Z,8576
2018-04-14T07:36:08.757Z,8692
2018-04-14T07:37:08.743Z,8308
2018-04-14T07:38:08.793Z,8588
2018-04-14T07:39:09.028Z,7888
2018-04-14T07:40:08.182Z,7792
2018-04-14T07:41:08.698Z,7860
2018-04-14T07:42:08.409Z,7964
2018-04-14T07:43:08.131Z,8052
2018-04-14T07:44:08.667Z,7732
2018-04-14T07:45:09.014Z,7420
2018-04-14T07:46:08.092Z,6908
2018-04-14T07:47:08.349Z,6100
2018-04-14T07:48:08.864Z,6780
2018-04-14T07:49:08.055Z,7528
2018-04-14T07:50:08.298Z,6692
2018-04-14T07:51:08.305Z,6572
2018-04-14T07:52:08.547Z,7188
2018-04-14T07:53:08.003Z,6968
2018-04-14T07:54:08.787Z,6084
2018-04-14T07:55:08.250Z,5036
2018-04-14T07:56:08.231Z,4716
2018-04-14T07:57:08.483Z,4180
2018-04-14T07:58:08.205Z,4376
2018-04-14T07:59:08.738Z,5424
2018-04-14T08:00:08.447Z,6588
2018-04-14T08:01:08.430Z,7368
2018-04-14T08:02:08.147Z,6920
2018-04-14T08:03:07.872Z,6836
2018-04-14T08:04:07.869Z,7656
2018-04-14T08:05:08.375Z,9228
2018-04-14T08:06:08.391Z,9876
2018-04-14T08:07:08.371Z,10252
2018-04-14T08:08:08.337Z,10836
2018-04-14T08:09:08.589Z,11268
2018-04-14T08:10:08.046Z,10460
2018-04-14T08:11:08.579Z,11816
2018-04-14T08:12:08.016Z,11516
2018-04-14T08:13:08.549Z,10608
2018-04-14T08:14:08.525Z,10952
2018-04-14T08:15:08.508Z,10576
2018-04-14T08:16:07.697Z,10148
2018-04-14T08:17:08.490Z,10204
2018-04-14T08:18:07.942Z,11048
2018-04-14T08:19:07.938Z,11324
2018-04-14T08:20:07.915Z,10740
2018-04-14T08:21:08.187Z,10824
2018-04-14T08:22:08.433Z,12108
2018-04-14T08:23:07.885Z,12884
2018-04-14T08:24:07.868Z,11444
2018-04-14T08:25:07.868Z,11216
2018-04-14T08:26:08.378Z,11636
2018-04-14T08:27:07.836Z,11156
2018-04-14T08:28:08.347Z,10280
2018-04-14T08:29:08.022Z,10056
2018-04-14T08:30:07.875Z,10592
2018-04-14T08:31:07.782Z,11504
2018-04-14T08:32:07.506Z,10456
2018-04-14T08:33:07.492Z,10636
2018-04-14T08:34:07.751Z,9952
2018-04-14T08:35:07.735Z,10012
2018-04-14T08:36:07.984Z,12596
2018-04-14T08:37:08.245Z,15052
2018-04-14T08:38:07.430Z,12952
2018-04-14T08:39:07.954Z,13848
2018-04-14T08:40:08.208Z,15212
2018-04-14T08:41:07.931Z,15448
2018-04-14T08:42:07.654Z,21888
2018-04-14T08:43:07.905Z,16672
2018-04-14T08:44:07.630Z,15836
2018-04-14T08:45:07.923Z,12124
2018-04-14T08:46:08.136Z,11572
2018-04-14T08:47:08.132Z,11288
2018-04-14T08:48:07.583Z,12136
2018-04-14T08:49:07.570Z,14008
2018-04-14T08:50:07.825Z,17216
2018-04-14T08:51:07.548Z,20064
2018-04-14T08:52:07.545Z,20672
2018-04-14T08:53:08.059Z,23616
2018-04-14T08:54:07.834Z,24704
2018-04-14T08:55:07.505Z,24608
2018-04-14T08:56:07.491Z,18592
2018-04-14T08:57:07.217Z,27488
2018-04-14T08:58:07.475Z,22976
2018-04-14T08:59:07.995Z,19936
2018-04-14T09:00:07.449Z,18304
2018-04-14T09:01:07.714Z,17920
2018-04-14T09:02:07.436Z,15720
2018-04-14T09:03:07.422Z,14344
2018-04-14T09:04:07.956Z,14556
2018-04-14T09:05:07.673Z,14496
2018-04-14T09:06:07.723Z,15112
2018-04-14T09:07:07.381Z,15604
2018-04-14T09:08:07.902Z,16672
2018-04-14T09:09:07.754Z,15800
2018-04-14T09:10:07.625Z,17504
2018-04-14T09:11:07.617Z,20576
2018-04-14T09:12:07.073Z,29472
2018-04-14T09:13:07.856Z,27040
2018-04-14T09:14:07.585Z,26816
2018-04-14T09:15:07.833Z,20928
2018-04-14T09:16:07.359Z,20032
2018-04-14T09:17:07.285Z,17408
2018-04-14T09:18:07.278Z,18912
2018-04-14T09:19:07.531Z,23680
2018-04-14T09:20:06.996Z,25344
2018-04-14T09:21:07.785Z,33696
2018-04-14T09:22:07.518Z,17568
2018-04-14T09:23:07.765Z,14516
2018-04-14T09:24:07.757Z,21600
2018-04-14T09:25:07.499Z,38240
2018-04-14T09:26:07.223Z,20896
2018-04-14T09:27:07.194Z,15656
2018-04-14T09:28:07.461Z,17472
2018-04-14T09:29:07.463Z,21376
2018-04-14T09:30:07.172Z,18176
2018-04-14T09:31:07.701Z,12876
2018-04-14T09:32:07.166Z,16560
2018-04-14T09:33:07.689Z,40224
2018-04-14T09:34:07.406Z,44640
2018-04-14T09:35:07.397Z,38080
2018-04-14T09:36:07.394Z,38272
2018-04-14T09:37:07.872Z,15544
2018-04-14T09:38:07.375Z,14556
2018-04-14T09:39:07.369Z,15588
2018-04-14T09:40:07.363Z,21376
2018-04-14T09:41:07.089Z,21856
2018-04-14T09:42:07.362Z,22720
2018-04-14T09:43:07.340Z,16544
2018-04-14T09:44:07.335Z,12944
2018-04-14T09:45:07.595Z,12800
2018-04-14T09:46:07.324Z,15268
2018-04-14T09:47:07.310Z,15924
2018-04-14T09:48:06.771Z,15552
2018-04-14T09:49:07.041Z,19552
2018-04-14T09:50:07.294Z,25440
2018-04-14T09:51:07.015Z,22944
2018-04-14T09:52:07.318Z,25088
2018-04-14T09:53:07.534Z,24992
2018-04-14T09:54:07.251Z,36448
2018-04-14T09:55:06.979Z,35328
2018-04-14T09:56:06.982Z,16072
2018-04-14T09:57:06.970Z,14528
2018-04-14T09:58:07.492Z,17184
2018-04-14T09:59:07.216Z,35776
2018-04-14T10:00:06.939Z,32864
2018-04-14T10:01:06.935Z,29760
2018-04-14T10:02:07.197Z,18944
2018-04-14T10:03:07.335Z,18464
2018-04-14T10:04:07.188Z,13912
2018-04-14T10:05:06.902Z,14348
2018-04-14T10:06:07.160Z,15404
2018-04-14T10:07:07.153Z,15372
2018-04-14T10:08:06.878Z,15696
2018-04-14T10:09:06.879Z,19168
2018-04-14T10:10:06.868Z,23808
2018-04-14T10:11:06.856Z,44800
2018-04-14T10:12:07.124Z,36224
2018-04-14T10:13:07.369Z,44768
2018-04-14T10:14:07.102Z,51072
2018-04-14T10:15:07.090Z,46016
2018-04-14T10:16:07.081Z,32608
2018-04-14T10:17:07.337Z,24576
2018-04-14T10:18:06.532Z,24992
2018-04-14T10:19:07.066Z,23456
2018-04-14T10:20:07.314Z,21568
2018-04-14T10:21:06.782Z,26688
2018-04-14T10:22:06.769Z,28512
2018-04-14T10:23:06.757Z,24832
2018-04-14T10:24:07.036Z,24640
2018-04-14T10:25:07.280Z,23392
2018-04-14T10:26:07.004Z,19776
2018-04-14T10:27:07.115Z,19360
2018-04-14T10:28:06.729Z,24608
2018-04-14T10:29:06.920Z,21536
2018-04-14T10:30:06.710Z,22240
2018-04-14T10:31:07.014Z,18368
2018-04-14T10:32:06.962Z,18560
2018-04-14T10:33:07.226Z,21824
2018-04-14T10:34:06.949Z,18272
2018-04-14T10:35:06.944Z,22176
2018-04-14T10:36:06.405Z,28448
2018-04-14T10:37:06.659Z,29184
2018-04-14T10:38:07.005Z,27616
2018-04-14T10:39:06.910Z,18336
2018-04-14T10:40:06.644Z,15088
2018-04-14T10:41:06.636Z,14696
2018-04-14T10:42:07.149Z,12748
2018-04-14T10:43:06.616Z,12452
2018-04-14T10:44:06.344Z,13388
2018-04-14T10:45:06.856Z,14404
2018-04-14T10:46:06.327Z,16672
2018-04-14T10:47:07.118Z,16576
2018-04-14T10:48:06.840Z,15528
2018-04-14T10:49:06.575Z,18432
2018-04-14T10:50:07.170Z,26944
2018-04-14T10:51:06.288Z,49344
2018-04-14T10:52:06.812Z,33600
2018-04-14T10:53:06.532Z,40256
2018-04-14T10:54:06.815Z,25184
2018-04-14T10:55:06.520Z,40832
2018-04-14T10:56:06.795Z,24544
2018-04-14T10:57:06.514Z,27904
2018-04-14T10:58:06.774Z,29056
2018-04-14T10:59:07.023Z,44800
2018-04-14T11:00:07.015Z,30048
2018-04-14T11:01:07.012Z,28608
2018-04-14T11:02:06.745Z,35584
2018-04-14T11:03:06.737Z,64128
2018-04-14T11:04:06.453Z,66976
2018-04-14T11:05:06.466Z,65856
2018-04-14T11:06:06.720Z,58336
2018-04-14T11:07:06.707Z,70400
2018-04-14T11:08:06.172Z,74720
2018-04-14T11:09:06.436Z,70112
2018-04-14T11:10:06.696Z,74464
2018-04-14T11:11:06.689Z,75648
2018-04-14T11:12:06.419Z,72064
2018-04-14T11:13:06.685Z,68032
2018-04-14T11:14:06.416Z,56576
2018-04-14T11:15:06.687Z,57248
2018-04-14T11:16:06.943Z,54816
2018-04-14T11:17:06.944Z,53088
2018-04-14T11:18:06.679Z,38112
2018-04-14T11:19:06.694Z,34688
2018-04-14T11:20:06.403Z,57440
2018-04-14T11:21:06.671Z,29408
2018-04-14T11:22:06.927Z,35616
2018-04-14T11:23:06.666Z,62080
2018-04-14T11:24:06.659Z,66912
2018-04-14T11:25:06.668Z,56832
2018-04-14T11:26:06.954Z,27552
2018-04-14T11:27:06.927Z,24096
2018-04-14T11:28:06.401Z,40128
2018-04-14T11:29:06.390Z,47328
2018-04-14T11:30:06.386Z,35840
2018-04-14T11:31:06.924Z,34016
2018-04-14T11:32:06.915Z,58816
2018-04-14T11:33:06.650Z,69920
2018-04-14T11:34:06.910Z,60224
2018-04-14T11:35:06.641Z,32800
2018-04-14T11:36:06.118Z,36704
2018-04-14T11:37:06.655Z,76032
2018-04-14T11:38:06.646Z,84672
2018-04-14T11:39:06.654Z,89792
2018-04-14T11:40:06.642Z,79584
2018-04-14T11:41:06.647Z,81184
2018-04-14T11:42:06.379Z,74752
2018-04-14T11:43:06.645Z,38816
2018-04-14T11:44:06.640Z,27872
2018-04-14T11:45:06.904Z,30880
2018-04-14T11:46:06.650Z,51712
2018-04-14T11:47:06.653Z,68800
2018-04-14T11:48:06.113Z,53952
2018-04-14T11:49:06.916Z,31776
2018-04-14T11:50:06.905Z,67168
2018-04-14T11:51:06.994Z,83200
2018-04-14T11:52:06.377Z,82912
2018-04-14T11:53:06.643Z,74144
2018-04-14T11:54:06.377Z,72352
2018-04-14T11:55:06.636Z,71200
2018-04-14T11:56:06.906Z,75104
2018-04-14T11:57:06.906Z,42912
2018-04-14T11:58:06.394Z,42432
2018-04-14T11:59:06.654Z,57312
2018-04-14T12:00:06.381Z,57696
2018-04-14T12:01:06.651Z,56992
2018-04-14T12:02:06.113Z,65312
2018-04-14T12:03:06.647Z,71744
2018-04-14T12:04:06.644Z,77568
2018-04-14T12:05:06.372Z,78240
2018-04-14T12:06:06.378Z,65536
2018-04-14T12:07:06.634Z,37856
2018-04-14T12:08:06.649Z,24128
2018-04-14T12:09:06.387Z,43232
2018-04-14T12:10:06.647Z,19776
2018-04-14T12:11:06.638Z,42688
2018-04-14T12:12:06.377Z,58656
2018-04-14T12:13:06.392Z,87648
2018-04-14T12:14:06.101Z,27360
2018-04-14T12:15:06.641Z,28640
2018-04-14T12:16:06.645Z,30368
2018-04-14T12:17:06.104Z,77440
2018-04-14T12:18:06.891Z,83296
2018-04-14T12:19:06.363Z,80352
2018-04-14T12:20:06.890Z,78688
2018-04-14T12:21:06.098Z,81728
2018-04-14T12:22:06.897Z,85120
2018-04-14T12:23:06.094Z,85536
2018-04-14T12:24:06.629Z,83936
2018-04-14T12:25:06.894Z,80480
2018-04-14T12:26:06.633Z,77280
2018-04-14T12:27:06.884Z,76832
2018-04-14T12:28:06.618Z,74848
2018-04-14T12:29:07.497Z,76416
2018-04-14T12:30:06.359Z,81248
2018-04-14T12:31:06.360Z,81088
2018-04-14T12:32:06.371Z,82944
2018-04-14T12:33:06.356Z,79552
2018-04-14T12:34:06.363Z,77504
2018-04-14T12:35:06.638Z,71776
2018-04-14T12:36:06.633Z,70848
2018-04-14T12:37:06.636Z,66432
2018-04-14T12:38:06.631Z,63104
2018-04-14T12:39:06.902Z,75392
2018-04-14T12:40:06.633Z,70080
2018-04-14T12:41:06.917Z,74752
2018-04-14T12:42:06.636Z,76448
2018-04-14T12:43:06.376Z,70304
2018-04-14T12:44:06.445Z,28736
2018-04-14T12:45:06.382Z,27744
2018-04-14T12:46:06.648Z,66272
2018-04-14T12:47:06.119Z,48864
2018-04-14T12:48:06.382Z,62848
2018-04-14T12:49:06.650Z,60320
2018-04-14T12:50:06.382Z,67072
2018-04-14T12:51:06.650Z,71168
2018-04-14T12:52:06.924Z,43328
2018-04-14T12:53:06.923Z,78624
2018-04-14T12:54:06.118Z,80096
2018-04-14T12:55:06.130Z,80224
2018-04-14T12:56:06.381Z,77664
2018-04-14T12:57:06.648Z,74016
2018-04-14T12:58:06.720Z,70528
2018-04-14T12:59:06.654Z,68224
2018-04-14T13:00:06.392Z,64416
2018-04-14T13:01:06.669Z,61280
2018-04-14T13:02:06.662Z,63840
2018-04-14T13:03:06.662Z,57216
2018-04-14T13:04:06.391Z,23328
2018-04-14T13:05:06.672Z,28000
2018-04-14T13:06:06.408Z,66176
2018-04-14T13:07:06.670Z,74816
2018-04-14T13:08:06.935Z,77408
2018-04-14T13:09:06.401Z,79072
2018-04-14T13:10:06.682Z,78304
2018-04-14T13:11:06.698Z,74304
2018-04-14T13:12:06.672Z,67328
2018-04-14T13:13:06.415Z,69408
2018-04-14T13:14:06.422Z,71040
2018-04-14T13:15:06.412Z,72192
2018-04-14T13:16:06.942Z,75008
2018-04-14T13:17:06.699Z,80608
2018-04-14T13:18:06.437Z,81216
2018-04-14T13:19:06.493Z,79360
2018-04-14T13:20:06.680Z,77440
2018-04-14T13:21:06.690Z,73664
2018-04-14T13:22:06.697Z,63488
2018-04-14T13:23:06.695Z,67840
2018-04-14T13:24:06.966Z,54400
2018-04-14T13:25:06.434Z,52800
2018-04-14T13:26:06.430Z,55456
2018-04-14T13:27:06.434Z,36672
2018-04-14T13:28:06.964Z,47680
2018-04-14T13:29:06.442Z,26592
2018-04-14T13:30:06.175Z,68384
2018-04-14T13:31:06.442Z,35488
2018-04-14T13:32:06.444Z,75552
2018-04-14T13:33:06.710Z,77632
2018-04-14T13:34:06.986Z,75840
2018-04-14T13:35:06.714Z,66944
2018-04-14T13:36:06.715Z,62464
2018-04-14T13:37:06.986Z,67712